Aérodrome :
LOGIN :

S'inscrire | Disclaimer

   EN    FR    IT 

 










Légende :    VFR   VFR Marginal   IFR   IFR Intensif   IFR Très Intensif
Visi : 
Plafond : 
>= 8 km
>= 3000ft
5 à 8 km
1000 à 3000 ft
1500m à 5 km
500 à 1000 ft
800 à 1500m
200 à 500 ft
< 800m
< 200 ft
Symboles :   Orages  Brouillard  Fortes neiges  Fortes précipitations  Vent > 20 kt
SIGMETs :   Divers  Orages  Givrage  Turbulence  Onde Orograph.  Cendres Volcan.







- Altitude de l'aérodrome : 266 ft
- Code IATA : NCL
- Voir les cartes d'approche


EGNT - Newcastle

DERNIER METAR :
  • 210250Z 25011KT 220V290 9999 BKN020 12/08 Q1026

METARs EXPIRÉS :
  • 210220Z VRB02KT 9999 BKN020 11/08 Q1026
  • 210150Z 18005KT 9999 BKN020 11/08 Q1026
  • 210120Z 19008KT 150V230 9999 BKN020 11/08 Q1026
  • 210050Z 20006KT 160V230 9999 BKN017 11/08 Q1026
  • 210020Z 18004KT 150V220 9999 BKN017 12/08 Q1026

TAF TAF EGNT
Valide du 21 à 00h jusqu'au 22 à 00h UTC


202306Z 2100/2124 20009KT 9999 BKN030
TEMPO 2100/2124 BKN010
PROB30
TEMPO 2100/2110 6000 BKN006
BECMG 2103/2106 26012KT
BECMG 2121/2124 VRB02KT
ATIS : +44 191 214 3400
Pas de NOTAMs connus pour ce terrain.
1 SIGMET publié pour la FIR Scottish (EGPX) :
 
Onde orographique forte
EGPX SIGMET 01 VALID 210300/210600 EGRR
EGPX SCOTTISH FIR SEV MTW FCST WI N5859 W00030 - N5645 W00033 - N5607 W00451 - N5810 W00439 - N5859 W00030 SFC/FL220 MOV SE 10KT WKN=



MET'MAP, la Météo Aéronautique d'un coup d'oeil ! - Copyright ORBIFLY Décembre 2007 - Disclaimer

ORBIFLY MET'MAP TEAM :

Programmation & Développement : Alexandra Zaïnal
Conception & Développement : Baudouin d'Aumeries
Co-Programmation & Développement : Marc-Olivier Méhu
Soutien technique & logistique : Manuel Goepfert

Contact : metmap@orbifly.com




SOURCES & CREDITS :

   NOAA